sensor_id;sensor_type;location;lat;lon;timestamp;pressure;altitude;pressure_sealevel;temperature;humidity
19672;BME280;9983;51.114;13.788;2022-12-20T00:04:34;99961.97;;;2.76;100.00
19672;BME280;9983;51.114;13.788;2022-12-20T00:09:34;99957.84;;;2.72;100.00
19672;BME280;9983;51.114;13.788;2022-12-20T00:14:35;99957.38;;;2.78;100.00
19672;BME280;9983;51.114;13.788;2022-12-20T00:19:35;99938.22;;;2.98;100.00
19672;BME280;9983;51.114;13.788;2022-12-20T00:24:35;99925.91;;;2.97;100.00
19672;BME280;9983;51.114;13.788;2022-12-20T00:29:36;99940.13;;;2.96;100.00
19672;BME280;9983;51.114;13.788;2022-12-20T00:34:37;99928.47;;;2.99;100.00
19672;BME280;9983;51.114;13.788;2022-12-20T00:39:37;99917.50;;;3.03;100.00
19672;BME280;9983;51.114;13.788;2022-12-20T00:44:37;99918.72;;;2.99;100.00
19672;BME280;9983;51.114;13.788;2022-12-20T00:49:37;99905.91;;;2.93;100.00
19672;BME280;9983;51.114;13.788;2022-12-20T00:54:38;99923.06;;;3.12;100.00
19672;BME280;9983;51.114;13.788;2022-12-20T00:59:38;99921.88;;;3.27;100.00
19672;BME280;9983;51.114;13.788;2022-12-20T01:04:38;99910.22;;;3.29;100.00
19672;BME280;9983;51.114;13.788;2022-12-20T01:09:39;99899.97;;;3.36;100.00
19672;BME280;9983;51.114;13.788;2022-12-20T01:14:39;99895.16;;;3.52;100.00
19672;BME280;9983;51.114;13.788;2022-12-20T01:19:39;99886.75;;;3.47;100.00
19672;BME280;9983;51.114;13.788;2022-12-20T01:24:39;99894.44;;;3.61;100.00
19672;BME280;9983;51.114;13.788;2022-12-20T01:29:40;99880.00;;;3.65;100.00
19672;BME280;9983;51.114;13.788;2022-12-20T01:34:40;99903.75;;;3.67;100.00
19672;BME280;9983;51.114;13.788;2022-12-20T01:39:40;99921.22;;;3.58;100.00
19672;BME280;9983;51.114;13.788;2022-12-20T01:49:47;99897.59;;;3.66;100.00
19672;BME280;9983;51.114;13.788;2022-12-20T01:54:53;99903.84;;;3.54;100.00
19672;BME280;9983;51.114;13.788;2022-12-20T01:59:55;99897.13;;;3.50;100.00
19672;BME280;9983;51.114;13.788;2022-12-20T02:04:56;99901.94;;;3.56;100.00
19672;BME280;9983;51.114;13.788;2022-12-20T02:09:57;99888.66;;;3.78;100.00
19672;BME280;9983;51.114;13.788;2022-12-20T02:31:46;99887.44;;;3.27;100.00
19672;BME280;9983;51.114;13.788;2022-12-20T02:36:50;99891.28;;;3.12;100.00
19672;BME280;9983;51.114;13.788;2022-12-20T02:41:54;99898.03;;;3.16;100.00
19672;BME280;9983;51.114;13.788;2022-12-20T02:46:57;99895.53;;;3.36;100.00
19672;BME280;9983;51.114;13.788;2022-12-20T02:52:00;99879.22;;;3.08;100.00
19672;BME280;9983;51.114;13.788;2022-12-20T02:57:21;99871.78;;;3.35;100.00
19672;BME280;9983;51.114;13.788;2022-12-20T03:02:26;99873.63;;;3.34;100.00
19672;BME280;9983;51.114;13.788;2022-12-20T03:07:28;99874.19;;;3.27;100.00
19672;BME280;9983;51.114;13.788;2022-12-20T03:12:28;99869.16;;;3.24;100.00
19672;BME280;9983;51.114;13.788;2022-12-20T03:17:28;99850.34;;;3.16;100.00
19672;BME280;9983;51.114;13.788;2022-12-20T03:22:29;99848.16;;;3.21;100.00
19672;BME280;9983;51.114;13.788;2022-12-20T03:27:30;99842.16;;;3.30;100.00
19672;BME280;9983;51.114;13.788;2022-12-20T03:32:30;99849.16;;;3.31;100.00
19672;BME280;9983;51.114;13.788;2022-12-20T03:37:30;99838.56;;;3.31;100.00
19672;BME280;9983;51.114;13.788;2022-12-20T03:42:31;99838.06;;;3.37;100.00
19672;BME280;9983;51.114;13.788;2022-12-20T03:47:31;99832.41;;;3.53;100.00
19672;BME280;9983;51.114;13.788;2022-12-20T03:52:32;99841.44;;;3.61;100.00
19672;BME280;9983;51.114;13.788;2022-12-20T03:57:32;99838.78;;;3.61;100.00
19672;BME280;9983;51.114;13.788;2022-12-20T04:02:32;99839.72;;;3.83;100.00
19672;BME280;9983;51.114;13.788;2022-12-20T04:07:33;99845.03;;;3.71;100.00
19672;BME280;9983;51.114;13.788;2022-12-20T04:12:33;99827.44;;;3.70;100.00
19672;BME280;9983;51.114;13.788;2022-12-20T04:17:33;99828.78;;;3.76;100.00
19672;BME280;9983;51.114;13.788;2022-12-20T04:22:33;99831.03;;;3.80;100.00
19672;BME280;9983;51.114;13.788;2022-12-20T04:27:34;99842.09;;;3.97;100.00
19672;BME280;9983;51.114;13.788;2022-12-20T04:32:34;99842.84;;;3.99;100.00
19672;BME280;9983;51.114;13.788;2022-12-20T04:37:34;99831.94;;;4.13;100.00
19672;BME280;9983;51.114;13.788;2022-12-20T04:42:35;99829.91;;;4.05;100.00
19672;BME280;9983;51.114;13.788;2022-12-20T04:47:35;99828.81;;;4.08;100.00
19672;BME280;9983;51.114;13.788;2022-12-20T04:52:35;99835.84;;;3.87;100.00
19672;BME280;9983;51.114;13.788;2022-12-20T04:57:54;99825.34;;;3.96;100.00
19672;BME280;9983;51.114;13.788;2022-12-20T05:02:54;99823.41;;;3.98;100.00
19672;BME280;9983;51.114;13.788;2022-12-20T05:07:55;99817.03;;;4.01;100.00
19672;BME280;9983;51.114;13.788;2022-12-20T05:12:55;99819.47;;;3.93;100.00
19672;BME280;9983;51.114;13.788;2022-12-20T05:17:55;99810.88;;;4.00;100.00
19672;BME280;9983;51.114;13.788;2022-12-20T05:22:59;99823.59;;;3.74;100.00
19672;BME280;9983;51.114;13.788;2022-12-20T05:28:18;99815.56;;;3.97;100.00
19672;BME280;9983;51.114;13.788;2022-12-20T05:33:18;99815.06;;;4.03;100.00
19672;BME280;9983;51.114;13.788;2022-12-20T05:38:19;99813.38;;;4.02;100.00
19672;BME280;9983;51.114;13.788;2022-12-20T05:43:19;99809.44;;;4.28;100.00
19672;BME280;9983;51.114;13.788;2022-12-20T05:48:19;99798.94;;;3.95;100.00
19672;BME280;9983;51.114;13.788;2022-12-20T05:53:20;99808.66;;;4.37;100.00
19672;BME280;9983;51.114;13.788;2022-12-20T05:58:20;99801.78;;;4.14;100.00
19672;BME280;9983;51.114;13.788;2022-12-20T06:03:22;99797.91;;;4.18;100.00
19672;BME280;9983;51.114;13.788;2022-12-20T06:08:23;99802.94;;;4.21;100.00
19672;BME280;9983;51.114;13.788;2022-12-20T06:13:24;99798.06;;;4.37;100.00
19672;BME280;9983;51.114;13.788;2022-12-20T06:18:24;99794.03;;;4.22;100.00
19672;BME280;9983;51.114;13.788;2022-12-20T06:23:24;99790.66;;;4.20;100.00
19672;BME280;9983;51.114;13.788;2022-12-20T06:28:24;99793.09;;;4.12;100.00
19672;BME280;9983;51.114;13.788;2022-12-20T06:33:25;99795.66;;;4.02;100.00
19672;BME280;9983;51.114;13.788;2022-12-20T06:38:25;99799.34;;;4.22;100.00
19672;BME280;9983;51.114;13.788;2022-12-20T06:43:25;99800.25;;;4.00;100.00
19672;BME280;9983;51.114;13.788;2022-12-20T06:48:25;99781.22;;;4.27;100.00
19672;BME280;9983;51.114;13.788;2022-12-20T06:53:26;99807.75;;;4.27;100.00
19672;BME280;9983;51.114;13.788;2022-12-20T06:58:26;99798.25;;;3.93;100.00
19672;BME280;9983;51.114;13.788;2022-12-20T07:03:26;99818.44;;;4.05;100.00
19672;BME280;9983;51.114;13.788;2022-12-20T07:08:27;99821.59;;;4.10;100.00
19672;BME280;9983;51.114;13.788;2022-12-20T07:13:27;99807.84;;;4.05;100.00
19672;BME280;9983;51.114;13.788;2022-12-20T07:18:28;99800.25;;;4.00;100.00
19672;BME280;9983;51.114;13.788;2022-12-20T07:23:29;99797.03;;;3.86;100.00
19672;BME280;9983;51.114;13.788;2022-12-20T07:28:29;99790.50;;;4.01;100.00
19672;BME280;9983;51.114;13.788;2022-12-20T07:33:30;99776.50;;;3.99;100.00
19672;BME280;9983;51.114;13.788;2022-12-20T07:38:31;99775.25;;;4.14;100.00
19672;BME280;9983;51.114;13.788;2022-12-20T07:43:31;99793.50;;;3.96;100.00
19672;BME280;9983;51.114;13.788;2022-12-20T07:48:32;99784.91;;;4.04;100.00
19672;BME280;9983;51.114;13.788;2022-12-20T07:53:36;99780.47;;;4.04;100.00
19672;BME280;9983;51.114;13.788;2022-12-20T07:58:38;99792.00;;;4.14;100.00
19672;BME280;9983;51.114;13.788;2022-12-20T08:03:43;99796.66;;;4.33;100.00
19672;BME280;9983;51.114;13.788;2022-12-20T08:08:48;99797.13;;;4.27;99.73
19672;BME280;9983;51.114;13.788;2022-12-20T08:13:50;99786.78;;;4.24;99.57
19672;BME280;9983;51.114;13.788;2022-12-20T08:18:51;99788.56;;;4.35;97.89
19672;BME280;9983;51.114;13.788;2022-12-20T08:23:51;99786.34;;;4.40;96.77
19672;BME280;9983;51.114;13.788;2022-12-20T08:28:53;99789.41;;;4.77;93.39
19672;BME280;9983;51.114;13.788;2022-12-20T08:33:53;99795.47;;;4.47;93.48
19672;BME280;9983;51.114;13.788;2022-12-20T08:38:54;99806.91;;;4.58;93.37
19672;BME280;9983;51.114;13.788;2022-12-20T08:43:54;99812.06;;;4.81;91.71
19672;BME280;9983;51.114;13.788;2022-12-20T08:48:54;99807.59;;;4.61;91.80
19672;BME280;9983;51.114;13.788;2022-12-20T08:53:54;99800.53;;;4.71;92.19
19672;BME280;9983;51.114;13.788;2022-12-20T08:58:55;99789.31;;;4.88;89.61
19672;BME280;9983;51.114;13.788;2022-12-20T09:03:55;99798.34;;;4.76;88.80
19672;BME280;9983;51.114;13.788;2022-12-20T09:08:55;99789.66;;;4.74;88.37
19672;BME280;9983;51.114;13.788;2022-12-20T09:13:57;99795.69;;;4.76;88.52
19672;BME280;9983;51.114;13.788;2022-12-20T09:18:59;99814.72;;;5.02;87.29
19672;BME280;9983;51.114;13.788;2022-12-20T09:24:00;99814.78;;;4.90;87.09
19672;BME280;9983;51.114;13.788;2022-12-20T09:29:00;99800.91;;;4.87;86.90
19672;BME280;9983;51.114;13.788;2022-12-20T09:34:04;99792.88;;;4.98;86.05
19672;BME280;9983;51.114;13.788;2022-12-20T09:39:04;99800.25;;;5.15;85.29
19672;BME280;9983;51.114;13.788;2022-12-20T09:44:26;99792.19;;;5.26;83.63
19672;BME280;9983;51.114;13.788;2022-12-20T09:49:31;99802.28;;;5.32;83.89
19672;BME280;9983;51.114;13.788;2022-12-20T09:54:45;99801.94;;;5.16;83.69
19672;BME280;9983;51.114;13.788;2022-12-20T09:59:49;99807.34;;;5.36;83.15
19672;BME280;9983;51.114;13.788;2022-12-20T10:04:50;99794.56;;;5.60;81.29
19672;BME280;9983;51.114;13.788;2022-12-20T10:10:16;99815.59;;;5.72;80.40
19672;BME280;9983;51.114;13.788;2022-12-20T10:15:28;99819.72;;;5.56;80.35
19672;BME280;9983;51.114;13.788;2022-12-20T10:20:52;99818.78;;;5.26;81.40
19672;BME280;9983;51.114;13.788;2022-12-20T10:25:57;99792.25;;;4.85;84.16
19672;BME280;9983;51.114;13.788;2022-12-20T10:31:01;99783.66;;;5.02;83.54
19672;BME280;9983;51.114;13.788;2022-12-20T10:36:19;99803.50;;;4.98;84.00
19672;BME280;9983;51.114;13.788;2022-12-20T10:41:23;99782.66;;;5.24;82.76
19672;BME280;9983;51.114;13.788;2022-12-20T10:46:34;99775.59;;;5.13;82.44
19672;BME280;9983;51.114;13.788;2022-12-20T10:51:35;99768.16;;;5.38;81.56
19672;BME280;9983;51.114;13.788;2022-12-20T10:56:35;99759.13;;;5.19;82.59
19672;BME280;9983;51.114;13.788;2022-12-20T11:01:45;99739.19;;;5.04;82.60
19672;BME280;9983;51.114;13.788;2022-12-20T11:06:46;99747.53;;;5.20;81.86
19672;BME280;9983;51.114;13.788;2022-12-20T11:17:04;99717.75;;;5.26;80.93
19672;BME280;9983;51.114;13.788;2022-12-20T11:22:22;99714.31;;;5.36;81.04
19672;BME280;9983;51.114;13.788;2022-12-20T11:27:39;99722.59;;;5.61;79.93
19672;BME280;9983;51.114;13.788;2022-12-20T11:33:28;99713.72;;;5.91;77.93
19672;BME280;9983;51.114;13.788;2022-12-20T11:44:19;99667.44;;;5.73;77.25
19672;BME280;9983;51.114;13.788;2022-12-20T11:49:51;99667.16;;;5.57;78.09
19672;BME280;9983;51.114;13.788;2022-12-20T12:00:12;99682.00;;;5.50;78.61
19672;BME280;9983;51.114;13.788;2022-12-20T12:05:23;99669.41;;;5.52;78.26
19672;BME280;9983;51.114;13.788;2022-12-20T12:10:29;99683.47;;;5.23;79.97
19672;BME280;9983;51.114;13.788;2022-12-20T12:15:39;99665.94;;;5.11;80.59
19672;BME280;9983;51.114;13.788;2022-12-20T12:26:01;99640.34;;;4.70;82.01
19672;BME280;9983;51.114;13.788;2022-12-20T12:31:08;99632.91;;;5.04;81.59
19672;BME280;9983;51.114;13.788;2022-12-20T12:36:37;99616.09;;;4.94;81.82
19672;BME280;9983;51.114;13.788;2022-12-20T12:47:21;99607.63;;;4.70;83.66
19672;BME280;9983;51.114;13.788;2022-12-20T12:52:27;99606.69;;;4.80;83.31
19672;BME280;9983;51.114;13.788;2022-12-20T12:57:56;99610.13;;;4.62;83.86
19672;BME280;9983;51.114;13.788;2022-12-20T13:02:57;99602.16;;;4.31;85.51
19672;BME280;9983;51.114;13.788;2022-12-20T13:07:57;99602.72;;;4.25;85.83
19672;BME280;9983;51.114;13.788;2022-12-20T13:13:00;99596.59;;;4.34;85.72
19672;BME280;9983;51.114;13.788;2022-12-20T13:23:14;99582.09;;;4.38;86.38
19672;BME280;9983;51.114;13.788;2022-12-20T13:43:45;99553.38;;;4.63;85.14
19672;BME280;9983;51.114;13.788;2022-12-20T13:53:58;99543.53;;;4.34;85.61
19672;BME280;9983;51.114;13.788;2022-12-20T13:59:05;99536.09;;;4.68;84.97
19672;BME280;9983;51.114;13.788;2022-12-20T14:04:09;99542.28;;;4.38;86.95
19672;BME280;9983;51.114;13.788;2022-12-20T14:09:30;99532.44;;;4.60;84.81
19672;BME280;9983;51.114;13.788;2022-12-20T14:14:52;99531.69;;;4.08;86.51
19672;BME280;9983;51.114;13.788;2022-12-20T14:25:17;99528.59;;;4.12;87.20
19672;BME280;9983;51.114;13.788;2022-12-20T14:30:29;99516.66;;;4.18;87.86
19672;BME280;9983;51.114;13.788;2022-12-20T14:35:30;99513.31;;;4.26;87.34
19672;BME280;9983;51.114;13.788;2022-12-20T14:40:39;99516.22;;;4.23;87.15
19672;BME280;9983;51.114;13.788;2022-12-20T14:45:40;99507.16;;;4.25;87.36
19672;BME280;9983;51.114;13.788;2022-12-20T14:50:50;99488.94;;;4.11;89.07
19672;BME280;9983;51.114;13.788;2022-12-20T14:55:51;99504.00;;;4.01;88.73
19672;BME280;9983;51.114;13.788;2022-12-20T15:00:59;99492.75;;;3.88;88.60
19672;BME280;9983;51.114;13.788;2022-12-20T15:06:01;99504.44;;;4.06;88.67
19672;BME280;9983;51.114;13.788;2022-12-20T15:11:11;99499.28;;;4.14;88.42
19672;BME280;9983;51.114;13.788;2022-12-20T15:16:19;99511.81;;;4.02;88.77
19672;BME280;9983;51.114;13.788;2022-12-20T15:21:39;99508.94;;;3.85;89.48
19672;BME280;9983;51.114;13.788;2022-12-20T15:26:42;99497.34;;;4.16;88.22
19672;BME280;9983;51.114;13.788;2022-12-20T15:31:43;99511.00;;;4.11;88.10
19672;BME280;9983;51.114;13.788;2022-12-20T15:36:43;99515.50;;;4.20;88.50
19672;BME280;9983;51.114;13.788;2022-12-20T15:41:46;99499.84;;;4.08;88.16
19672;BME280;9983;51.114;13.788;2022-12-20T15:46:47;99491.50;;;4.22;87.17
19672;BME280;9983;51.114;13.788;2022-12-20T15:51:50;99507.31;;;3.93;89.60
19672;BME280;9983;51.114;13.788;2022-12-20T15:56:54;99507.66;;;4.09;88.93
19672;BME280;9983;51.114;13.788;2022-12-20T16:01:54;99508.31;;;4.32;87.48
19672;BME280;9983;51.114;13.788;2022-12-20T16:06:55;99491.75;;;4.19;88.31
19672;BME280;9983;51.114;13.788;2022-12-20T16:11:55;99495.88;;;3.93;89.64
19672;BME280;9983;51.114;13.788;2022-12-20T16:16:56;99486.97;;;4.03;89.11
19672;BME280;9983;51.114;13.788;2022-12-20T16:21:57;99504.50;;;3.95;90.08
19672;BME280;9983;51.114;13.788;2022-12-20T16:26:57;99510.66;;;3.95;89.55
19672;BME280;9983;51.114;13.788;2022-12-20T16:31:57;99508.41;;;3.91;89.98
19672;BME280;9983;51.114;13.788;2022-12-20T16:36:58;99495.75;;;4.34;88.43
19672;BME280;9983;51.114;13.788;2022-12-20T16:41:59;99505.94;;;3.99;89.30
19672;BME280;9983;51.114;13.788;2022-12-20T16:47:00;99492.38;;;4.02;88.67
19672;BME280;9983;51.114;13.788;2022-12-20T16:52:02;99504.31;;;4.07;89.67
19672;BME280;9983;51.114;13.788;2022-12-20T16:57:02;99498.94;;;3.98;89.52
19672;BME280;9983;51.114;13.788;2022-12-20T17:02:17;99493.22;;;3.72;90.63
19672;BME280;9983;51.114;13.788;2022-12-20T17:07:20;99499.19;;;3.95;89.83
19672;BME280;9983;51.114;13.788;2022-12-20T17:12:21;99479.94;;;3.93;90.45
19672;BME280;9983;51.114;13.788;2022-12-20T17:17:21;99472.44;;;3.98;90.58
19672;BME280;9983;51.114;13.788;2022-12-20T17:22:22;99482.63;;;3.72;92.13
19672;BME280;9983;51.114;13.788;2022-12-20T17:27:22;99488.66;;;3.74;92.60
19672;BME280;9983;51.114;13.788;2022-12-20T17:32:23;99492.91;;;3.65;92.68
19672;BME280;9983;51.114;13.788;2022-12-20T17:37:24;99480.22;;;3.90;91.81
19672;BME280;9983;51.114;13.788;2022-12-20T17:42:24;99474.91;;;3.90;91.04
19672;BME280;9983;51.114;13.788;2022-12-20T17:47:24;99445.00;;;3.57;92.74
19672;BME280;9983;51.114;13.788;2022-12-20T17:52:24;99459.78;;;3.80;92.96
19672;BME280;9983;51.114;13.788;2022-12-20T17:57:25;99464.88;;;3.93;93.70
19672;BME280;9983;51.114;13.788;2022-12-20T18:02:25;99458.94;;;3.80;94.14
19672;BME280;9983;51.114;13.788;2022-12-20T18:07:26;99449.84;;;4.13;93.01
19672;BME280;9983;51.114;13.788;2022-12-20T18:12:27;99437.66;;;3.70;94.13
19672;BME280;9983;51.114;13.788;2022-12-20T18:17:27;99444.47;;;3.94;92.58
19672;BME280;9983;51.114;13.788;2022-12-20T18:22:27;99426.47;;;3.57;93.30
19672;BME280;9983;51.114;13.788;2022-12-20T18:27:28;99410.34;;;4.10;90.97
19672;BME280;9983;51.114;13.788;2022-12-20T18:32:30;99417.41;;;3.90;90.49
19672;BME280;9983;51.114;13.788;2022-12-20T18:37:30;99419.81;;;3.72;91.76
19672;BME280;9983;51.114;13.788;2022-12-20T18:42:30;99423.56;;;4.00;90.45
19672;BME280;9983;51.114;13.788;2022-12-20T18:47:30;99416.16;;;4.04;89.90
19672;BME280;9983;51.114;13.788;2022-12-20T18:52:34;99408.75;;;3.98;89.95
19672;BME280;9983;51.114;13.788;2022-12-20T18:57:34;99416.38;;;3.81;90.77
19672;BME280;9983;51.114;13.788;2022-12-20T19:02:35;99421.94;;;4.09;89.13
19672;BME280;9983;51.114;13.788;2022-12-20T19:07:35;99425.59;;;4.17;89.29
19672;BME280;9983;51.114;13.788;2022-12-20T19:12:35;99421.06;;;3.99;90.92
19672;BME280;9983;51.114;13.788;2022-12-20T19:17:35;99402.75;;;3.96;90.41
19672;BME280;9983;51.114;13.788;2022-12-20T19:22:35;99407.16;;;4.16;88.71
19672;BME280;9983;51.114;13.788;2022-12-20T19:27:36;99394.00;;;4.14;88.64
19672;BME280;9983;51.114;13.788;2022-12-20T19:32:36;99379.41;;;3.90;89.98
19672;BME280;9983;51.114;13.788;2022-12-20T19:37:37;99384.19;;;3.96;89.56
19672;BME280;9983;51.114;13.788;2022-12-20T19:42:40;99374.41;;;3.96;89.67
19672;BME280;9983;51.114;13.788;2022-12-20T19:47:40;99363.00;;;4.05;89.11
19672;BME280;9983;51.114;13.788;2022-12-20T19:52:40;99361.91;;;4.27;88.72
19672;BME280;9983;51.114;13.788;2022-12-20T19:57:41;99381.44;;;4.07;89.54
19672;BME280;9983;51.114;13.788;2022-12-20T20:02:41;99383.72;;;4.40;87.93
19672;BME280;9983;51.114;13.788;2022-12-20T20:07:41;99369.41;;;3.93;89.65
19672;BME280;9983;51.114;13.788;2022-12-20T20:12:41;99357.41;;;4.08;89.48
19672;BME280;9983;51.114;13.788;2022-12-20T20:17:41;99393.41;;;3.92;89.67
19672;BME280;9983;51.114;13.788;2022-12-20T20:22:42;99381.09;;;3.91;90.22
19672;BME280;9983;51.114;13.788;2022-12-20T20:27:42;99360.66;;;4.22;88.28
19672;BME280;9983;51.114;13.788;2022-12-20T20:32:42;99366.63;;;4.04;89.61
19672;BME280;9983;51.114;13.788;2022-12-20T20:37:42;99367.28;;;3.97;89.69
19672;BME280;9983;51.114;13.788;2022-12-20T20:42:43;99356.59;;;4.08;88.88
19672;BME280;9983;51.114;13.788;2022-12-20T20:47:44;99353.53;;;4.22;89.08
19672;BME280;9983;51.114;13.788;2022-12-20T20:52:46;99342.88;;;4.03;89.56
19672;BME280;9983;51.114;13.788;2022-12-20T20:57:46;99344.56;;;4.04;89.44
19672;BME280;9983;51.114;13.788;2022-12-20T21:02:46;99340.88;;;3.86;90.24
19672;BME280;9983;51.114;13.788;2022-12-20T21:07:46;99346.13;;;3.66;91.75
19672;BME280;9983;51.114;13.788;2022-12-20T21:12:47;99349.84;;;4.04;90.16
19672;BME280;9983;51.114;13.788;2022-12-20T21:17:47;99355.97;;;3.95;90.60
19672;BME280;9983;51.114;13.788;2022-12-20T21:22:47;99351.78;;;4.02;89.79
19672;BME280;9983;51.114;13.788;2022-12-20T21:27:47;99340.41;;;4.30;88.77
19672;BME280;9983;51.114;13.788;2022-12-20T21:32:48;99335.91;;;4.21;89.09
19672;BME280;9983;51.114;13.788;2022-12-20T21:37:48;99346.25;;;4.14;89.07
19672;BME280;9983;51.114;13.788;2022-12-20T21:42:48;99357.59;;;4.26;88.65
19672;BME280;9983;51.114;13.788;2022-12-20T21:47:49;99360.22;;;4.07;89.63
19672;BME280;9983;51.114;13.788;2022-12-20T21:52:49;99341.25;;;4.40;88.95
19672;BME280;9983;51.114;13.788;2022-12-20T21:57:49;99341.22;;;4.11;89.35
19672;BME280;9983;51.114;13.788;2022-12-20T22:02:49;99355.91;;;4.44;88.50
19672;BME280;9983;51.114;13.788;2022-12-20T22:07:49;99345.31;;;4.35;88.65
19672;BME280;9983;51.114;13.788;2022-12-20T22:12:50;99344.72;;;4.22;88.88
19672;BME280;9983;51.114;13.788;2022-12-20T22:17:50;99352.13;;;4.37;87.84
19672;BME280;9983;51.114;13.788;2022-12-20T22:22:50;99336.50;;;4.34;88.73
19672;BME280;9983;51.114;13.788;2022-12-20T22:27:50;99340.28;;;4.41;90.60
19672;BME280;9983;51.114;13.788;2022-12-20T22:32:51;99325.31;;;4.21;91.91
19672;BME280;9983;51.114;13.788;2022-12-20T22:37:51;99297.38;;;3.98;92.61
19672;BME280;9983;51.114;13.788;2022-12-20T22:42:51;99301.25;;;3.94;91.98
19672;BME280;9983;51.114;13.788;2022-12-20T22:47:52;99311.59;;;3.97;91.87
19672;BME280;9983;51.114;13.788;2022-12-20T22:52:52;99317.72;;;3.88;91.30
19672;BME280;9983;51.114;13.788;2022-12-20T22:57:52;99311.91;;;4.13;90.40
19672;BME280;9983;51.114;13.788;2022-12-20T23:02:52;99328.94;;;4.01;89.86
19672;BME280;9983;51.114;13.788;2022-12-20T23:07:52;99337.81;;;3.80;89.91
19672;BME280;9983;51.114;13.788;2022-12-20T23:12:53;99311.47;;;4.08;89.33
19672;BME280;9983;51.114;13.788;2022-12-20T23:18:11;99298.47;;;4.05;89.75
19672;BME280;9983;51.114;13.788;2022-12-20T23:23:12;99301.28;;;4.03;89.20
19672;BME280;9983;51.114;13.788;2022-12-20T23:28:12;99298.75;;;4.02;89.50
19672;BME280;9983;51.114;13.788;2022-12-20T23:33:12;99282.31;;;4.08;88.63
19672;BME280;9983;51.114;13.788;2022-12-20T23:38:12;99284.25;;;4.15;88.58
19672;BME280;9983;51.114;13.788;2022-12-20T23:43:12;99261.91;;;4.28;88.13
19672;BME280;9983;51.114;13.788;2022-12-20T23:48:13;99256.06;;;4.14;88.25
19672;BME280;9983;51.114;13.788;2022-12-20T23:53:14;99266.41;;;4.17;88.08
19672;BME280;9983;51.114;13.788;2022-12-20T23:58:16;99251.84;;;4.12;87.64
